Time;durP1;ratioP1;P1;durP2;ratioP2;P2;SDS_P1;SDS_P2;PMS_P1;PMS_P2;Temp;Humidity;BMP_temperature;BMP_pressure;BME280_temperature;BME280_humidity;BME280_pressure;Samples;Min_cycle;Max_cycle;Signal;HPM_P1;HPM_P2
2023/08/17 00:02:14;;;;;;;5.43;2.60;;;;;;;18.70;100.00;101310.19;6122525;28;20048;-66
2023/08/17 00:05:10;;;;;;;4.75;2.22;;;;;;;18.89;100.00;101324.94;6121549;28;20039;-66
2023/08/17 00:08:05;;;;;;;8.43;2.50;;;;;;;18.96;100.00;101313.28;6122489;28;20029;-65
2023/08/17 00:11:00;;;;;;;5.33;2.10;;;;;;;18.99;100.00;101312.91;6122272;28;20278;-66
2023/08/17 00:13:56;;;;;;;4.60;2.00;;;;;;;18.89;100.00;101285.44;6121482;28;20033;-66
2023/08/17 00:16:51;;;;;;;6.07;2.10;;;;;;;18.86;99.20;101269.69;6122399;28;20037;-66
2023/08/17 00:19:47;;;;;;;7.03;2.13;;;;;;;19.00;99.21;101297.59;6121810;28;20408;-66
2023/08/17 00:22:42;;;;;;;4.53;1.95;;;;;;;18.99;99.57;101290.56;6122232;28;20316;-65
2023/08/17 00:25:37;;;;;;;3.83;2.03;;;;;;;18.96;99.12;101293.63;6121375;28;20025;-66
2023/08/17 00:28:32;;;;;;;5.17;2.33;;;;;;;18.99;98.51;101285.19;6122292;28;20512;-66
2023/08/17 00:31:28;;;;;;;3.77;2.30;;;;;;;18.95;98.59;101282.03;6121763;28;20067;-66
2023/08/17 00:34:23;;;;;;;5.20;2.67;;;;;;;18.90;98.55;101273.69;6121218;28;20562;-65
2023/08/17 00:37:18;;;;;;;3.67;2.03;;;;;;;19.02;99.02;101282.94;6123927;28;20543;-66
2023/08/17 00:40:14;;;;;;;5.93;2.23;;;;;;;18.91;100.00;101283.44;6122458;28;20043;-65
2023/08/17 00:43:09;;;;;;;4.57;2.67;;;;;;;18.89;100.00;101296.19;6122085;28;21012;-65
2023/08/17 00:46:04;;;;;;;10.20;2.77;;;;;;;18.49;100.00;101283.22;6121157;28;20491;-65
2023/08/17 00:49:00;;;;;;;3.20;2.50;;;;;;;18.45;100.00;101287.25;6121681;28;20028;-65
2023/08/17 00:51:56;;;;;;;4.80;2.42;;;;;;;18.33;100.00;101288.72;6121661;28;20040;-65
2023/08/17 00:54:51;;;;;;;4.82;2.50;;;;;;;18.33;100.00;101277.97;6120853;28;20059;-65
2023/08/17 00:57:47;;;;;;;5.25;2.45;;;;;;;18.27;100.00;101286.75;6121668;28;20625;-65
2023/08/17 01:00:42;;;;;;;4.13;2.50;;;;;;;18.26;100.00;101287.78;6121765;28;20064;-65
2023/08/17 01:03:40;;;;;;;5.30;2.90;;;;;;;18.38;100.00;101283.63;6120537;28;20040;-65
2023/08/17 01:06:35;;;;;;;6.03;2.50;;;;;;;18.06;100.00;101270.50;6121427;28;20035;-64
2023/08/17 01:09:31;;;;;;;13.03;3.50;;;;;;;17.98;100.00;101275.94;6120947;28;20040;-65
2023/08/17 01:12:30;;;;;;;7.53;2.90;;;;;;;17.72;100.00;101279.81;6123307;28;20100;-64
2023/08/17 01:15:36;;;;;;;9.45;3.10;;;;;;;17.60;100.00;101291.97;6127890;28;20024;-64
2023/08/17 01:18:38;;;;;;;4.82;2.45;;;;;;;17.52;100.00;101288.47;6119977;28;20086;-64
2023/08/17 01:21:49;;;;;;;7.50;2.97;;;;;;;17.67;100.00;101303.66;6119996;28;20067;-64
2023/08/17 01:24:44;;;;;;;6.65;3.00;;;;;;;17.57;100.00;101303.06;6120301;28;20543;-64
2023/08/17 01:27:42;;;;;;;10.57;3.40;;;;;;;17.57;100.00;101297.69;6125432;28;20040;-64
2023/08/17 01:30:41;;;;;;;7.22;3.13;;;;;;;17.60;100.00;101318.81;6125539;28;20032;-64
2023/08/17 01:33:44;;;;;;;8.48;3.10;;;;;;;17.63;100.00;101328.34;6125665;28;20503;-64
2023/08/17 01:36:47;;;;;;;6.38;3.40;;;;;;;17.32;100.00;101322.09;6124627;28;20075;-65
2023/08/17 01:39:44;;;;;;;7.90;4.03;;;;;;;17.48;100.00;101320.16;6124700;28;20120;-65
2023/08/17 01:42:41;;;;;;;8.43;4.10;;;;;;;17.73;100.00;101345.03;6124568;28;20055;-65
2023/08/17 01:45:36;;;;;;;8.75;3.70;;;;;;;17.30;100.00;101343.72;6123965;28;20032;-64
2023/08/17 01:48:32;;;;;;;7.73;3.30;;;;;;;17.18;100.00;101350.47;6125500;28;20047;-64
2023/08/17 01:51:27;;;;;;;8.20;3.90;;;;;;;17.07;100.00;101337.44;6126608;28;20024;-64
2023/08/17 01:54:23;;;;;;;11.70;3.67;;;;;;;17.22;100.00;101362.53;6125710;28;20488;-64
2023/08/17 01:57:18;;;;;;;8.07;3.55;;;;;;;17.02;100.00;101346.00;6123110;28;20082;-64
2023/08/17 02:00:14;;;;;;;9.27;3.70;;;;;;;17.00;100.00;101329.25;6125395;28;20476;-65
2023/08/17 02:03:10;;;;;;;9.40;3.50;;;;;;;16.93;100.00;101319.41;6125471;28;20036;-64
2023/08/17 02:06:05;;;;;;;15.40;4.43;;;;;;;17.54;100.00;101330.22;6124221;28;20078;-64
2023/08/17 02:09:00;;;;;;;10.63;3.97;;;;;;;17.38;100.00;101330.28;6125133;28;20038;-64
2023/08/17 02:11:56;;;;;;;10.20;4.03;;;;;;;17.26;100.00;101337.03;6124621;28;20106;-64
2023/08/17 02:14:51;;;;;;;12.10;3.90;;;;;;;17.08;100.00;101325.72;6124379;28;20056;-64
2023/08/17 02:17:46;;;;;;;7.83;3.60;;;;;;;16.94;100.00;101303.16;6124947;28;20380;-64
2023/08/17 02:20:41;;;;;;;9.90;3.80;;;;;;;17.17;100.00;101300.56;6124709;28;20032;-64
2023/08/17 02:23:37;;;;;;;7.47;4.53;;;;;;;17.18;100.00;101307.56;6124228;28;20063;-64
2023/08/17 02:26:32;;;;;;;8.13;4.37;;;;;;;17.23;100.00;101294.47;6124304;28;20036;-64
2023/08/17 02:29:27;;;;;;;11.07;3.77;;;;;;;17.05;100.00;101284.03;6124878;28;20045;-65
2023/08/17 02:32:23;;;;;;;20.05;4.18;;;;;;;17.05;100.00;101267.09;6124634;28;20361;-64
2023/08/17 02:35:18;;;;;;;8.57;3.63;;;;;;;17.05;100.00;101285.84;6123893;28;20066;-64
2023/08/17 02:38:13;;;;;;;13.20;4.70;;;;;;;17.15;100.00;101291.84;6123641;28;20040;-64
2023/08/17 02:41:09;;;;;;;6.53;4.10;;;;;;;17.16;100.00;101288.16;6124034;28;20090;-64
2023/08/17 02:44:04;;;;;;;11.33;4.20;;;;;;;17.16;100.00;101277.44;6123976;28;20029;-64
2023/08/17 02:46:59;;;;;;;7.53;4.07;;;;;;;17.04;100.00;101268.94;6124546;28;20028;-64
2023/08/17 02:49:55;;;;;;;9.17;4.60;;;;;;;17.13;100.00;101273.25;6124275;28;20263;-64
2023/08/17 02:52:50;;;;;;;10.00;4.05;;;;;;;17.02;100.00;101254.88;6124573;28;20025;-64
2023/08/17 02:55:45;;;;;;;7.65;4.15;;;;;;;17.07;100.00;101252.50;6134966;28;20040;-64
2023/08/17 02:58:41;;;;;;;9.70;3.43;;;;;;;17.12;100.00;101260.84;6124191;28;20036;-64
2023/08/17 03:01:36;;;;;;;5.22;3.47;;;;;;;17.08;100.00;101240.78;6124145;28;20101;-64
2023/08/17 03:04:32;;;;;;;6.20;3.63;;;;;;;17.13;100.00;101245.63;6123057;28;20467;-64
2023/08/17 03:07:28;;;;;;;10.00;3.72;;;;;;;17.19;100.00;101244.91;6124229;28;20111;-64
2023/08/17 03:10:24;;;;;;;12.00;4.03;;;;;;;17.18;100.00;101235.19;6123118;28;20040;-64
2023/08/17 03:13:20;;;;;;;8.13;3.53;;;;;;;17.11;100.00;101223.53;6123374;28;20395;-64
2023/08/17 03:16:15;;;;;;;6.03;3.93;;;;;;;17.12;100.00;101222.53;6123703;28;20032;-63
2023/08/17 03:19:11;;;;;;;5.70;3.95;;;;;;;17.05;100.00;101205.47;6123542;28;20285;-64
2023/08/17 03:22:07;;;;;;;6.75;4.15;;;;;;;17.04;100.00;101209.16;6123805;28;20116;-63
2023/08/17 03:25:02;;;;;;;5.77;4.03;;;;;;;17.15;100.00;101222.97;6122733;28;20032;-64
2023/08/17 03:27:57;;;;;;;6.45;4.18;;;;;;;17.04;100.00;101206.50;6123200;28;20306;-64
2023/08/17 03:30:56;;;;;;;9.30;4.53;;;;;;;17.05;100.00;101216.19;6123527;28;20119;-64
2023/08/17 03:33:51;;;;;;;10.82;5.00;;;;;;;17.13;100.00;101240.25;6122727;28;20112;-63
2023/08/17 03:36:47;;;;;;;8.40;4.57;;;;;;;17.12;100.00;101222.53;6123373;28;20036;-64
2023/08/17 03:39:42;;;;;;;7.53;3.80;;;;;;;17.07;100.00;101220.34;6146085;28;20403;-64
2023/08/17 03:42:37;;;;;;;6.83;4.00;;;;;;;17.27;100.00;101234.16;6138767;28;20068;-64
2023/08/17 03:45:33;;;;;;;6.60;3.90;;;;;;;17.26;100.00;101232.47;6121467;28;20086;-64
2023/08/17 03:48:28;;;;;;;5.63;3.67;;;;;;;17.23;100.00;101230.13;6122001;28;20310;-63
2023/08/17 03:51:23;;;;;;;8.30;4.97;;;;;;;17.30;100.00;101246.38;6122685;28;20028;-64
2023/08/17 03:54:19;;;;;;;5.97;3.90;;;;;;;17.26;100.00;101245.88;6121757;28;20043;-64
2023/08/17 03:57:14;;;;;;;7.28;5.18;;;;;;;17.27;100.00;101247.56;6122795;28;20262;-65
2023/08/17 04:00:10;;;;;;;9.33;4.63;;;;;;;17.38;100.00;101247.16;6122213;28;20033;-64
2023/08/17 04:03:05;;;;;;;6.82;5.22;;;;;;;17.30;100.00;101241.84;6146963;28;20270;-64
2023/08/17 04:06:10;;;;;;;6.60;4.57;;;;;;;17.24;100.00;101234.50;6146535;28;20110;-64
2023/08/17 04:09:05;;;;;;;8.93;5.13;;;;;;;17.10;100.00;101208.44;6146806;28;20047;-64
2023/08/17 04:12:00;;;;;;;7.07;4.70;;;;;;;17.33;100.00;101254.91;6124204;28;20040;-64
2023/08/17 04:14:56;;;;;;;7.00;4.47;;;;;;;17.27;100.00;101245.72;6121398;28;20450;-64
2023/08/17 04:17:51;;;;;;;7.87;5.10;;;;;;;17.33;100.00;101246.84;6127799;28;20044;-64
2023/08/17 04:20:46;;;;;;;8.50;4.83;;;;;;;17.40;100.00;101261.22;6122414;28;20514;-65
2023/08/17 04:23:41;;;;;;;5.50;4.40;;;;;;;17.27;100.00;101247.56;6121402;28;20460;-64
2023/08/17 04:26:38;;;;;;;7.57;4.97;;;;;;;17.28;100.00;101243.88;6122290;28;20032;-65
2023/08/17 04:29:33;;;;;;;10.20;5.22;;;;;;;17.37;100.00;101253.53;6123001;28;20493;-64
2023/08/17 04:32:29;;;;;;;7.93;5.50;;;;;;;17.28;100.00;101268.00;6122705;28;20036;-64
2023/08/17 04:35:25;;;;;;;8.77;5.18;;;;;;;17.30;100.00;101262.44;6121354;28;20029;-65
2023/08/17 04:38:20;;;;;;;8.63;5.70;;;;;;;17.33;100.00;101262.94;6121776;28;20455;-65
2023/08/17 04:41:16;;;;;;;8.53;5.70;;;;;;;17.36;100.00;101264.44;6121700;28;20032;-65
2023/08/17 04:44:12;;;;;;;13.95;6.90;;;;;;;17.31;100.00;101259.63;6120956;28;20032;-65
2023/08/17 04:47:07;;;;;;;9.83;5.80;;;;;;;17.25;100.00;101254.94;6121537;28;20044;-65
2023/08/17 04:50:03;;;;;;;9.73;6.32;;;;;;;17.30;100.00;101249.06;6121508;28;20109;-65
2023/08/17 04:52:58;;;;;;;9.77;6.13;;;;;;;17.32;100.00;101255.91;6121521;28;20028;-64
2023/08/17 04:55:53;;;;;;;14.60;6.50;;;;;;;17.24;100.00;101242.53;6120058;28;20036;-65
2023/08/17 04:58:48;;;;;;;9.23;6.60;;;;;;;17.25;100.00;101238.88;6121469;28;20036;-66
2023/08/17 05:01:44;;;;;;;8.70;6.40;;;;;;;17.23;100.00;101240.84;6121157;28;20045;-65
2023/08/17 05:04:39;;;;;;;9.27;7.13;;;;;;;17.34;100.00;101259.22;6122066;28;20258;-65
2023/08/17 05:07:35;;;;;;;12.25;6.95;;;;;;;17.25;100.00;101238.88;6121354;28;20499;-65
2023/08/17 05:10:30;;;;;;;10.97;6.97;;;;;;;17.34;100.00;101256.56;6121388;28;20035;-65
2023/08/17 05:13:25;;;;;;;11.00;7.23;;;;;;;17.33;100.00;101268.31;6120590;28;20032;-65
2023/08/17 05:16:21;;;;;;;11.17;6.47;;;;;;;17.35;100.00;101250.19;6131196;28;20030;-65
2023/08/17 05:19:16;;;;;;;10.30;6.70;;;;;;;17.40;100.00;101261.22;6145477;28;20039;-65
2023/08/17 05:22:12;;;;;;;10.33;6.47;;;;;;;17.27;100.00;101247.56;6145714;28;20032;-65
2023/08/17 05:25:07;;;;;;;8.80;6.18;;;;;;;17.36;100.00;101251.88;6135028;28;20033;-65
2023/08/17 05:28:03;;;;;;;9.75;6.40;;;;;;;17.32;100.00;101247.84;6120844;28;20364;-65
2023/08/17 05:31:06;;;;;;;10.32;6.50;;;;;;;17.36;100.00;101249.19;6120905;28;20125;-66
2023/08/17 05:34:01;;;;;;;8.80;5.82;;;;;;;17.43;100.00;101263.53;6130298;28;20035;-65
2023/08/17 05:36:56;;;;;;;11.03;6.17;;;;;;;17.41;100.00;101241.44;6124335;28;20036;-65
2023/08/17 05:39:51;;;;;;;9.03;6.00;;;;;;;17.41;100.00;101249.50;6145667;28;20035;-65
2023/08/17 05:42:47;;;;;;;8.13;6.63;;;;;;;17.42;100.00;101251.13;6145479;28;20027;-65
2023/08/17 05:45:42;;;;;;;7.47;5.47;;;;;;;17.33;100.00;101246.84;6144881;28;20383;-65
2023/08/17 05:48:38;;;;;;;8.65;5.47;;;;;;;17.35;100.00;101255.56;6135010;28;20044;-65
2023/08/17 05:51:33;;;;;;;7.90;5.75;;;;;;;17.24;100.00;101237.19;6121431;28;20051;-65
2023/08/17 05:54:28;;;;;;;9.10;5.60;;;;;;;17.47;100.00;101262.19;6124775;28;20035;-65
2023/08/17 05:57:24;;;;;;;9.27;5.43;;;;;;;17.30;100.00;101252.56;6123492;28;20032;-65
2023/08/17 06:00:19;;;;;;;8.30;5.73;;;;;;;17.32;100.00;101255.06;6130052;28;20035;-65
2023/08/17 06:03:14;;;;;;;6.63;5.40;;;;;;;17.43;100.00;101279.63;6120726;28;20808;-65
2023/08/17 06:06:10;;;;;;;7.97;5.68;;;;;;;17.43;100.00;101282.31;6121012;28;20056;-65
2023/08/17 06:09:07;;;;;;;8.75;5.30;;;;;;;17.26;100.00;101262.81;6120601;28;20032;-65
2023/08/17 06:12:03;;;;;;;8.40;5.22;;;;;;;17.32;100.00;101261.25;6122092;28;20040;-65
2023/08/17 06:14:58;;;;;;;7.78;4.68;;;;;;;17.48;100.00;101276.41;6124776;28;20379;-65
2023/08/17 06:17:53;;;;;;;8.07;5.30;;;;;;;17.45;100.00;101261.50;6130340;28;20074;-65
2023/08/17 06:20:51;;;;;;;6.03;4.77;;;;;;;17.41;100.00;101257.53;6124938;28;20475;-65
2023/08/17 06:23:47;;;;;;;6.55;5.20;;;;;;;17.53;100.00;101269.53;6124517;28;20271;-66
2023/08/17 06:26:43;;;;;;;8.40;4.63;;;;;;;17.55;100.00;101267.53;6124135;28;20044;-65
2023/08/17 06:29:38;;;;;;;7.82;5.13;;;;;;;17.55;100.00;101272.06;6126158;28;20514;-65
2023/08/17 06:32:33;;;;;;;7.00;4.53;;;;;;;17.67;100.00;101282.19;6140325;28;20090;-65
2023/08/17 06:35:29;;;;;;;6.50;4.20;;;;;;;17.48;100.00;101255.81;6124394;28;20090;-65
2023/08/17 06:38:24;;;;;;;7.60;4.60;;;;;;;17.52;100.00;101283.94;6123979;28;20036;-65
2023/08/17 06:41:19;;;;;;;6.93;4.18;;;;;;;17.52;100.00;101272.38;6124092;28;20482;-66
2023/08/17 06:44:15;;;;;;;8.45;5.05;;;;;;;17.58;100.00;101282.44;6123122;28;20036;-65
2023/08/17 06:47:10;;;;;;;6.90;4.50;;;;;;;17.57;100.00;101276.22;6124164;28;20393;-64
2023/08/17 06:50:05;;;;;;;8.13;4.60;;;;;;;17.61;100.00;101277.53;6123688;28;20541;-65
2023/08/17 06:53:02;;;;;;;6.17;4.73;;;;;;;17.63;100.00;101278.22;6123959;28;20032;-65
2023/08/17 06:55:57;;;;;;;6.05;4.65;;;;;;;17.59;100.00;101287.63;6129785;28;20400;-65
2023/08/17 06:58:52;;;;;;;5.53;4.37;;;;;;;17.45;100.00;101271.44;6124197;28;20032;-65
2023/08/17 07:01:48;;;;;;;6.00;4.37;;;;;;;17.55;100.00;101291.69;6142038;28;20085;-65
2023/08/17 07:04:43;;;;;;;6.50;3.93;;;;;;;17.66;100.00;101285.91;6132966;28;20040;-65
2023/08/17 07:07:39;;;;;;;5.67;4.07;;;;;;;17.50;100.00;101269.84;6127318;28;20391;-65
2023/08/17 07:10:34;;;;;;;6.88;4.22;;;;;;;17.38;100.00;101267.75;6123748;28;20289;-65
2023/08/17 07:13:29;;;;;;;5.63;4.10;;;;;;;17.50;100.00;101288.63;6123309;28;20059;-65
2023/08/17 07:16:25;;;;;;;4.80;3.83;;;;;;;17.47;100.00;101298.91;6128352;28;20130;-65
2023/08/17 07:19:20;;;;;;;5.23;3.30;;;;;;;17.46;100.00;101298.06;6148131;28;20399;-65
2023/08/17 07:22:16;;;;;;;7.83;4.30;;;;;;;17.40;100.00;101293.38;6131005;28;20032;-65
2023/08/17 07:25:11;;;;;;;4.70;3.33;;;;;;;17.33;100.00;101289.75;6122620;28;20392;-64
2023/08/17 07:28:07;;;;;;;5.10;3.13;;;;;;;17.33;100.00;101284.41;6123050;28;20036;-66
2023/08/17 07:31:02;;;;;;;5.07;3.40;;;;;;;17.36;100.00;101277.84;6122774;28;20034;-65
2023/08/17 07:33:57;;;;;;;3.90;3.00;;;;;;;17.42;100.00;101275.28;6122158;28;20282;-65
2023/08/17 07:36:52;;;;;;;5.10;3.17;;;;;;;17.48;100.00;101287.97;6129512;28;20045;-65
2023/08/17 07:39:48;;;;;;;5.73;3.43;;;;;;;17.56;100.00;101293.31;6126911;28;20035;-65
2023/08/17 07:42:43;;;;;;;4.20;2.90;;;;;;;17.45;100.00;101282.97;6126327;28;20466;-65
2023/08/17 07:45:38;;;;;;;5.07;3.20;;;;;;;17.68;100.00;101296.44;6124879;28;20475;-65
2023/08/17 07:48:34;;;;;;;6.93;3.27;;;;;;;17.47;100.00;101282.81;6126053;28;20037;-65
2023/08/17 07:51:31;;;;;;;4.43;3.00;;;;;;;17.65;100.00;101297.63;6126637;28;20050;-65
2023/08/17 07:54:26;;;;;;;6.03;3.05;;;;;;;17.57;100.00;101280.75;6121382;28;20024;-65
2023/08/17 07:57:22;;;;;;;4.57;3.00;;;;;;;17.60;100.00;101291.97;6121961;28;20036;-65
2023/08/17 08:00:17;;;;;;;5.03;2.97;;;;;;;17.61;100.00;101287.44;6127441;28;20072;-65
2023/08/17 08:03:14;;;;;;;4.40;3.05;;;;;;;17.76;100.00;101305.28;6119625;28;20499;-65
2023/08/17 08:06:09;;;;;;;5.43;3.35;;;;;;;17.60;100.00;101289.28;6125559;28;20028;-64
2023/08/17 08:09:06;;;;;;;4.30;3.00;;;;;;;17.81;100.00;101305.56;6128149;28;20131;-65
2023/08/17 08:12:02;;;;;;;4.75;3.90;;;;;;;17.66;100.00;101293.97;6124654;28;20040;-64
2023/08/17 08:14:57;;;;;;;4.20;3.00;;;;;;;17.64;100.00;101295.13;6124994;28;20024;-65
2023/08/17 08:17:52;;;;;;;4.33;3.23;;;;;;;17.72;100.00;101292.38;6127716;28;20623;-65
2023/08/17 08:20:48;;;;;;;5.17;2.93;;;;;;;17.71;100.00;101294.25;6121096;28;20163;-64
2023/08/17 08:23:44;;;;;;;6.45;3.38;;;;;;;17.75;100.00;101316.16;6120320;28;20040;-65
2023/08/17 08:26:39;;;;;;;3.23;2.60;;;;;;;17.61;100.00;101299.00;6131558;28;20487;-64
2023/08/17 08:29:34;;;;;;;7.17;3.40;;;;;;;17.71;100.00;101317.56;6129193;28;20032;-64
2023/08/17 08:32:30;;;;;;;4.00;2.70;;;;;;;17.60;100.00;101307.22;6121430;28;20596;-64
2023/08/17 08:35:25;;;;;;;4.03;3.27;;;;;;;17.58;100.00;101310.06;6120013;28;20035;-64
2023/08/17 08:38:20;;;;;;;4.28;3.25;;;;;;;17.58;100.00;101328.03;6146120;28;20077;-64
2023/08/17 08:41:16;;;;;;;4.20;3.20;;;;;;;17.50;100.00;101307.41;6137961;28;20028;-64
2023/08/17 08:44:12;;;;;;;4.40;3.10;;;;;;;17.48;100.00;101309.44;6124547;28;20055;-65
2023/08/17 08:47:07;;;;;;;4.43;2.90;;;;;;;17.47;100.00;101312.31;6125158;28;20058;-64
2023/08/17 08:50:04;;;;;;;5.72;3.47;;;;;;;17.64;100.00;101322.78;6120711;28;20090;-64
2023/08/17 08:53:03;;;;;;;4.45;3.38;;;;;;;17.77;100.00;101322.22;6121281;28;20032;-65
2023/08/17 08:56:00;;;;;;;4.00;3.00;;;;;;;17.80;100.00;101320.00;6119916;28;20040;-65
2023/08/17 08:58:55;;;;;;;4.50;2.75;;;;;;;17.77;100.00;101309.63;6120705;28;20085;-65
2023/08/17 09:01:51;;;;;;;3.60;2.60;;;;;;;17.79;100.00;101323.72;6121342;28;20024;-65
2023/08/17 09:04:46;;;;;;;4.13;2.93;;;;;;;17.69;100.00;101304.31;6119363;28;20086;-65
2023/08/17 09:07:42;;;;;;;4.07;3.00;;;;;;;17.70;100.00;101308.66;6121679;28;20271;-65
2023/08/17 09:10:37;;;;;;;3.13;2.58;;;;;;;17.73;100.00;101311.00;6120915;28;20039;-65
2023/08/17 09:13:33;;;;;;;4.00;2.80;;;;;;;17.70;100.00;101307.81;6120498;28;20483;-65
2023/08/17 09:16:28;;;;;;;3.90;2.90;;;;;;;17.83;100.00;101313.44;6121574;28;20134;-65
2023/08/17 09:19:23;;;;;;;3.40;2.73;;;;;;;17.82;100.00;101309.94;6120079;28;20036;-65
2023/08/17 09:22:37;;;;;;;4.57;3.20;;;;;;;17.70;100.00;101308.66;6142954;28;20107;-64
2023/08/17 09:25:34;;;;;;;5.43;2.90;;;;;;;17.70;100.00;101314.03;6129910;28;20293;-63
2023/08/17 09:28:29;;;;;;;6.65;2.95;;;;;;;17.56;100.00;101290.66;6121150;28;20361;-64
2023/08/17 09:31:24;;;;;;;4.65;3.20;;;;;;;17.56;100.00;101296.00;6127513;28;20034;-64
2023/08/17 09:34:20;;;;;;;5.10;2.70;;;;;;;17.47;100.00;101312.31;6120298;28;20048;-64
2023/08/17 09:37:15;;;;;;;4.63;3.20;;;;;;;17.36;100.00;101305.50;6126135;28;20032;-64
2023/08/17 09:40:10;;;;;;;5.03;3.33;;;;;;;17.34;100.00;101306.69;6145147;28;20127;-63
2023/08/17 09:43:06;;;;;;;5.17;3.60;;;;;;;17.49;100.00;101321.84;6122015;28;20301;-63
2023/08/17 09:46:04;;;;;;;5.87;4.30;;;;;;;17.50;100.00;101314.63;6118116;28;20298;-64
2023/08/17 09:49:04;;;;;;;5.38;4.15;;;;;;;17.40;100.00;101301.44;6126938;28;20040;-64
2023/08/17 09:52:01;;;;;;;7.30;4.82;;;;;;;17.49;100.00;101310.28;6145365;28;20028;-64
2023/08/17 09:55:00;;;;;;;5.53;3.85;;;;;;;17.27;100.00;101298.50;6138480;28;20364;-64
2023/08/17 09:57:56;;;;;;;6.63;4.65;;;;;;;17.50;100.00;101307.41;6122778;28;20097;-64
2023/08/17 10:00:51;;;;;;;7.85;4.72;;;;;;;17.44;100.00;101309.97;6140028;28;20036;-64
2023/08/17 10:03:49;;;;;;;6.37;4.53;;;;;;;17.41;100.00;101303.13;6136673;28;20020;-64
2023/08/17 10:06:48;;;;;;;8.02;5.55;;;;;;;17.44;100.00;101308.13;6128291;28;20290;-64
2023/08/17 10:09:47;;;;;;;8.70;5.40;;;;;;;17.33;100.00;101295.13;6127159;28;20032;-64
2023/08/17 10:12:50;;;;;;;6.50;5.07;;;;;;;17.58;100.00;101318.13;6135667;28;20424;-64
2023/08/17 10:15:57;;;;;;;6.35;5.07;;;;;;;17.55;100.00;101315.81;6124463;28;20107;-64
2023/08/17 10:18:56;;;;;;;12.93;5.38;;;;;;;17.54;100.00;101319.50;6133149;28;20476;-64
2023/08/17 10:22:03;;;;;;;10.80;5.63;;;;;;;17.42;100.00;101312.81;6123531;28;20119;-64
2023/08/17 10:25:00;;;;;;;9.00;5.80;;;;;;;17.25;100.00;101321.97;6123896;28;20511;-64
2023/08/17 10:27:56;;;;;;;8.90;6.03;;;;;;;17.23;100.00;101310.56;6123820;28;20121;-64
2023/08/17 10:30:51;;;;;;;9.90;5.43;;;;;;;17.11;100.00;101311.97;6124405;28;20029;-64
2023/08/17 10:33:47;;;;;;;8.47;5.17;;;;;;;17.00;100.00;101309.66;6126218;28;20048;-64
2023/08/17 10:36:43;;;;;;;6.85;4.88;;;;;;;16.91;100.00;101299.97;6122575;28;20042;-64
2023/08/17 10:39:45;;;;;;;6.68;4.55;;;;;;;17.19;100.00;101331.53;6122965;28;20037;-64
2023/08/17 10:42:40;;;;;;;7.38;4.57;;;;;;;16.93;100.00;101314.88;6123166;28;20368;-64
2023/08/17 10:45:38;;;;;;;9.43;5.33;;;;;;;17.01;100.00;101332.78;6126931;28;20058;-65
2023/08/17 10:48:33;;;;;;;7.32;5.03;;;;;;;16.82;100.00;101311.75;6130332;28;20042;-64
2023/08/17 10:51:28;;;;;;;9.03;5.40;;;;;;;16.97;100.00;101331.44;6126918;28;20040;-64
2023/08/17 10:54:41;;;;;;;9.13;5.77;;;;;;;16.77;100.00;101327.50;6122353;28;20033;-64
2023/08/17 10:57:38;;;;;;;10.07;6.47;;;;;;;16.58;100.00;101326.84;6131702;28;20044;-64
2023/08/17 11:00:36;;;;;;;9.07;6.35;;;;;;;16.74;100.00;101331.31;6123095;28;20077;-64
2023/08/17 11:03:32;;;;;;;11.63;5.85;;;;;;;16.83;100.00;101318.75;6121797;28;20474;-64
2023/08/17 11:06:28;;;;;;;13.57;5.95;;;;;;;16.84;100.00;101326.63;6123602;28;20661;-65
2023/08/17 11:09:23;;;;;;;7.93;5.37;;;;;;;17.08;100.00;101325.72;6122574;28;20033;-65
2023/08/17 11:12:25;;;;;;;8.23;5.40;;;;;;;16.86;100.00;101329.97;6121838;28;20101;-65
2023/08/17 11:15:20;;;;;;;9.20;5.20;;;;;;;16.96;100.00;101341.31;6122781;28;20032;-64
2023/08/17 11:18:16;;;;;;;9.33;5.60;;;;;;;16.82;100.00;101328.66;6129575;28;20031;-64
2023/08/17 11:21:12;;;;;;;7.37;5.10;;;;;;;17.04;100.00;101348.53;6123965;28;20040;-65
2023/08/17 11:24:10;;;;;;;7.95;4.97;;;;;;;17.04;100.00;101352.00;6121225;28;20033;-65
2023/08/17 11:27:05;;;;;;;7.03;4.35;;;;;;;17.04;100.00;101341.28;6117150;28;20041;-65
2023/08/17 11:30:00;;;;;;;10.67;4.43;;;;;;;16.82;100.00;101327.81;6121277;28;20040;-64
2023/08/17 11:32:56;;;;;;;9.32;5.25;;;;;;;17.01;100.00;101330.91;6122368;28;20044;-64
2023/08/17 11:35:54;;;;;;;8.48;4.40;;;;;;;16.98;100.00;101349.19;6122004;28;20098;-65
2023/08/17 11:38:49;;;;;;;8.82;4.05;;;;;;;16.99;100.00;101327.56;6121832;28;20438;-64
2023/08/17 11:41:45;;;;;;;7.37;4.40;;;;;;;17.12;100.00;101321.69;6122177;28;20029;-64
2023/08/17 11:44:40;;;;;;;7.57;3.80;;;;;;;17.36;100.00;101332.31;6121742;28;20058;-64
2023/08/17 11:47:37;;;;;;;9.17;5.30;;;;;;;17.16;100.00;101323.84;6121882;28;20058;-64
2023/08/17 11:50:33;;;;;;;11.02;4.95;;;;;;;17.51;100.00;101346.63;6122683;28;20037;-64
2023/08/17 11:53:35;;;;;;;11.43;5.25;;;;;;;17.29;100.00;101347.41;6120749;28;20072;-66
2023/08/17 11:56:30;;;;;;;9.07;5.15;;;;;;;17.02;100.00;101339.78;6127864;28;20444;-64
2023/08/17 11:59:28;;;;;;;11.97;6.63;;;;;;;17.03;100.00;101353.03;6136165;28;20036;-64
2023/08/17 12:02:24;;;;;;;10.35;6.20;;;;;;;17.07;100.00;101345.47;6123943;28;20028;-64
2023/08/17 12:05:23;;;;;;;13.20;5.72;;;;;;;17.17;100.00;101359.53;6120958;28;20083;-64
2023/08/17 12:08:18;;;;;;;13.30;5.57;;;;;;;17.04;100.00;101348.53;6117461;28;20036;-64
2023/08/17 12:11:16;;;;;;;9.33;4.93;;;;;;;17.10;100.00;101342.44;6120708;28;20449;-64
2023/08/17 12:14:12;;;;;;;13.70;6.28;;;;;;;17.33;100.00;101347.91;6122015;28;20032;-64
2023/08/17 12:17:07;;;;;;;12.60;6.28;;;;;;;17.38;100.00;101351.72;6122929;28;20035;-64
2023/08/17 12:20:03;;;;;;;12.20;6.30;;;;;;;17.36;100.00;101326.09;6121385;28;20033;-65
2023/08/17 12:22:58;;;;;;;12.05;5.72;;;;;;;17.48;100.00;101336.25;6121469;28;20036;-64
2023/08/17 12:25:54;;;;;;;12.90;6.57;;;;;;;17.58;100.00;101350.31;6120883;28;20655;-64
2023/08/17 12:28:50;;;;;;;13.52;6.53;;;;;;;17.51;100.00;101330.53;6121070;28;20055;-65
2023/08/17 12:31:45;;;;;;;14.27;5.63;;;;;;;17.69;100.00;101344.53;6121258;28;20082;-65
2023/08/17 12:34:41;;;;;;;15.57;6.03;;;;;;;17.41;100.00;101334.47;6118342;28;20032;-65
2023/08/17 12:37:36;;;;;;;14.75;6.50;;;;;;;17.71;100.00;101345.22;6120987;28;20035;-65
2023/08/17 12:40:32;;;;;;;15.70;6.17;;;;;;;17.48;100.00;101330.06;6126270;28;20037;-65
2023/08/17 12:43:27;;;;;;;14.20;5.83;;;;;;;17.36;100.00;101324.25;6120482;28;20032;-65
2023/08/17 12:46:22;;;;;;;12.73;5.93;;;;;;;17.60;100.00;101334.06;6122767;28;20491;-65
2023/08/17 12:49:17;;;;;;;14.60;5.50;;;;;;;17.42;100.00;101326.22;6120757;28;20695;-65
2023/08/17 12:52:14;;;;;;;14.53;6.47;;;;;;;17.47;100.00;101323.88;6120885;28;20482;-65
2023/08/17 12:55:09;;;;;;;12.60;5.50;;;;;;;18.00;100.00;101311.47;6120077;28;20045;-65
2023/08/17 12:58:08;;;;;;;11.03;5.83;;;;;;;18.11;100.00;101321.78;6120568;28;20036;-65
2023/08/17 13:01:03;;;;;;;14.85;5.25;;;;;;;18.39;100.00;101320.22;6120734;28;20036;-65
2023/08/17 13:03:58;;;;;;;11.98;5.35;;;;;;;18.18;100.00;101341.56;6119529;28;20034;-65
2023/08/17 13:06:55;;;;;;;12.20;4.97;;;;;;;18.21;100.00;101333.94;6120928;28;20037;-65
2023/08/17 13:09:50;;;;;;;13.00;5.22;;;;;;;18.32;100.00;101335.38;6120121;28;20020;-65
2023/08/17 13:12:47;;;;;;;10.83;5.47;;;;;;;17.85;100.00;101322.97;6120211;28;20033;-65
2023/08/17 13:15:42;;;;;;;12.15;5.35;;;;;;;17.85;100.00;101339.06;6119264;28;20161;-65
2023/08/17 13:18:37;;;;;;;12.47;5.40;;;;;;;17.80;100.00;101330.72;6120709;28;20368;-65
2023/08/17 13:21:33;;;;;;;11.18;5.03;;;;;;;17.99;100.00;101344.72;6122623;28;20032;-65
2023/08/17 13:24:28;;;;;;;14.70;5.65;;;;;;;18.23;100.00;101341.84;6125023;28;20037;-65
2023/08/17 13:27:23;;;;;;;12.27;5.00;;;;;;;18.00;100.00;101324.91;6124388;28;20033;-65